createdAt,value
2022-11-12T00:00:47.486Z,102613.97
2022-11-12T00:03:35.892Z,102602.75
2022-11-12T00:06:24.339Z,102592.38
2022-11-12T00:09:15.393Z,102605.88
2022-11-12T00:12:03.890Z,102606.69
2022-11-12T00:14:52.218Z,102610.06
2022-11-12T00:17:40.778Z,102584.34
2022-11-12T00:20:29.310Z,102609.66
2022-11-12T00:23:18.099Z,102583.03
2022-11-12T00:26:09.263Z,102606.81
2022-11-12T00:28:58.392Z,102610.66
2022-11-12T00:31:46.730Z,102619.94
2022-11-12T00:34:35.381Z,102623.09
2022-11-12T00:37:25.260Z,102602.69
2022-11-12T00:40:14.240Z,102606.53
2022-11-12T00:43:05.341Z,102615.84
2022-11-12T00:45:53.926Z,102628.38
2022-11-12T00:48:42.366Z,102629.66
2022-11-12T00:51:30.822Z,102572.91
2022-11-12T00:54:19.251Z,102623.41
2022-11-12T00:57:07.445Z,102633.19
2022-11-12T00:59:58.140Z,102590.03
2022-11-12T01:02:50.694Z,102651.88
2022-11-12T01:05:39.787Z,102624.50
2022-11-12T01:08:28.176Z,102647.59
2022-11-12T01:11:19.636Z,102646.09
2022-11-12T01:14:09.862Z,102652.06
2022-11-12T01:17:01.019Z,102646.09
2022-11-12T01:19:49.263Z,102634.78
2022-11-12T01:22:37.643Z,102639.88
2022-11-12T01:25:25.711Z,102641.69
2022-11-12T01:28:13.880Z,102637.59
2022-11-12T01:31:13.035Z,102632.41
2022-11-12T01:34:05.783Z,102644.97
2022-11-12T01:36:54.289Z,102626.50
2022-11-12T01:39:42.406Z,102661.47
2022-11-12T01:42:33.048Z,102645.63
2022-11-12T01:45:21.482Z,102633.81
2022-11-12T01:48:15.068Z,102638.91
2022-11-12T01:51:07.958Z,102648.28
2022-11-12T01:54:01.543Z,102645.69
2022-11-12T01:56:50.855Z,102642.84
2022-11-12T01:59:44.525Z,102636.59
2022-11-12T02:02:35.298Z,102637.19
2022-11-12T02:05:25.346Z,102609.50
2022-11-12T02:08:16.706Z,102637.16
2022-11-12T02:11:15.492Z,102628.75
2022-11-12T02:14:01.581Z,102647.16
2022-11-12T02:16:51.586Z,102639.06
2022-11-12T02:19:40.709Z,102636.50
2022-11-12T02:22:31.549Z,102582.03
2022-11-12T02:25:23.603Z,102623.72
2022-11-12T02:28:11.808Z,102637.22
2022-11-12T02:31:00.247Z,102633.03
2022-11-12T02:33:48.401Z,102643.47
2022-11-12T02:36:36.836Z,102624.72
2022-11-12T02:39:27.980Z,102622.31
2022-11-12T02:42:16.063Z,102631.75
2022-11-12T02:45:04.714Z,102562.72
2022-11-12T02:47:53.036Z,102631.53
2022-11-12T02:50:41.390Z,102636.47
2022-11-12T02:53:29.753Z,102638.19
2022-11-12T02:56:20.432Z,102638.00
2022-11-12T02:59:08.460Z,102614.03
2022-11-12T03:01:59.849Z,102623.09
2022-11-12T03:04:49.567Z,102628.47
2022-11-12T03:07:37.940Z,102642.03
2022-11-12T03:10:27.364Z,102624.59
2022-11-12T03:13:18.634Z,102608.38
2022-11-12T03:16:07.493Z,102638.66
2022-11-12T03:18:55.756Z,102632.34
2022-11-12T03:21:43.937Z,102633.22
2022-11-12T03:24:32.482Z,102637.31
2022-11-12T03:27:20.678Z,102637.78
2022-11-12T03:30:12.262Z,102609.41
2022-11-12T03:33:00.686Z,102625.81
2022-11-12T03:35:49.122Z,102633.22
2022-11-12T03:38:37.494Z,102616.41
2022-11-12T03:41:25.890Z,102626.59
2022-11-12T03:44:14.363Z,102634.78
2022-11-12T03:47:05.018Z,102641.59
2022-11-12T03:49:53.218Z,102640.72
2022-11-12T03:52:41.811Z,102609.50
2022-11-12T03:55:31.907Z,102622.06
2022-11-12T03:58:20.252Z,102634.03
2022-11-12T04:01:08.927Z,102629.09
2022-11-12T04:04:00.313Z,102634.34
2022-11-12T04:07:01.217Z,102621.19
2022-11-12T04:09:49.536Z,102622.88
2022-11-12T04:12:50.482Z,102600.66
2022-11-12T04:15:39.062Z,102631.94
2022-11-12T04:18:39.770Z,102628.94
2022-11-12T04:21:55.475Z,102597.91
2022-11-12T04:24:57.949Z,102605.94
2022-11-12T04:27:46.105Z,102606.72
2022-11-12T04:30:31.574Z,102594.13
2022-11-12T04:33:20.019Z,102617.16
2022-11-12T04:36:08.699Z,102619.28
2022-11-12T04:38:59.722Z,102602.13
2022-11-12T04:42:00.650Z,102606.06
2022-11-12T04:45:07.307Z,102613.13
2022-11-12T04:47:55.876Z,102601.00
2022-11-12T04:50:45.222Z,102596.81
2022-11-12T04:53:34.197Z,102610.66
2022-11-12T04:56:25.122Z,102608.69
2022-11-12T04:59:13.223Z,102597.16
2022-11-12T05:02:01.661Z,102593.63
2022-11-12T05:04:49.848Z,102614.47
2022-11-12T05:07:38.132Z,102607.19
2022-11-12T05:10:26.528Z,102613.56
2022-11-12T05:13:17.565Z,102609.97
2022-11-12T05:16:06.213Z,102611.81
2022-11-12T05:18:54.566Z,102618.00
2022-11-12T05:21:56.002Z,102618.75
2022-11-12T05:24:46.425Z,102581.97
2022-11-12T05:27:34.598Z,102611.16
2022-11-12T05:30:25.312Z,102615.66
2022-11-12T05:33:14.776Z,102604.44
2022-11-12T05:36:03.204Z,102608.50
2022-11-12T05:38:51.457Z,102607.19
2022-11-12T05:41:58.285Z,102622.63
2022-11-12T05:44:48.322Z,102606.53
2022-11-12T05:47:39.356Z,102618.63
2022-11-12T05:50:34.975Z,102605.13
2022-11-12T05:53:27.997Z,102615.34
2022-11-12T05:56:16.249Z,102610.72
2022-11-12T05:59:05.000Z,102593.34
2022-11-12T06:01:53.147Z,102619.97
2022-11-12T06:04:44.134Z,102622.16
2022-11-12T06:07:32.645Z,102621.72
2022-11-12T06:10:21.037Z,102614.91
2022-11-12T06:13:09.346Z,102616.00
2022-11-12T06:15:58.597Z,102604.34
2022-11-12T06:18:47.026Z,102623.47
2022-11-12T06:21:38.065Z,102621.75
2022-11-12T06:24:29.517Z,102582.78
2022-11-12T06:27:24.011Z,102617.91
2022-11-12T06:30:12.908Z,102616.38
2022-11-12T06:33:01.335Z,102630.97
2022-11-12T06:35:49.773Z,102633.59
2022-11-12T06:38:42.747Z,102637.13
2022-11-12T06:41:30.797Z,102636.16
2022-11-12T06:44:22.147Z,102620.00
2022-11-12T06:47:12.955Z,102619.31
2022-11-12T06:50:02.470Z,102623.72
2022-11-12T06:53:01.077Z,102635.81
2022-11-12T06:55:52.010Z,102632.75
2022-11-12T06:58:46.953Z,102635.72
2022-11-12T07:01:36.258Z,102617.19
2022-11-12T07:04:27.056Z,102623.53
2022-11-12T07:07:15.304Z,102617.72
2022-11-12T07:10:12.471Z,102627.22
2022-11-12T07:13:03.517Z,102621.13
2022-11-12T07:15:51.855Z,102639.91
2022-11-12T07:18:40.901Z,102650.41
2022-11-12T07:21:30.647Z,102642.94
2022-11-12T07:24:19.010Z,102623.88
2022-11-12T07:27:12.172Z,102636.81
2022-11-12T07:30:03.877Z,102666.84
2022-11-12T07:32:56.225Z,102662.69
2022-11-12T07:35:58.869Z,102661.03
2022-11-12T07:38:49.158Z,102659.16
2022-11-12T07:41:37.494Z,102651.88
2022-11-12T07:44:29.210Z,102654.75
2022-11-12T07:47:22.207Z,102664.00
2022-11-12T07:50:12.441Z,102671.59
2022-11-12T07:53:01.665Z,102669.50
2022-11-12T07:55:59.084Z,102668.38
2022-11-12T07:58:50.521Z,102669.50
2022-11-12T08:01:45.007Z,102674.88
2022-11-12T08:04:36.092Z,102678.16
2022-11-12T08:07:31.016Z,102679.50
2022-11-12T08:10:20.330Z,102658.03
2022-11-12T08:13:08.934Z,102647.31
2022-11-12T08:16:00.442Z,102669.72
2022-11-12T08:18:49.698Z,102646.34
2022-11-12T08:21:46.660Z,102671.00
2022-11-12T08:24:40.222Z,102673.22
2022-11-12T08:27:28.345Z,102668.16
2022-11-12T08:30:17.610Z,102666.22
2022-11-12T08:33:08.891Z,102676.75
2022-11-12T08:35:57.124Z,102654.00
2022-11-12T08:38:48.574Z,102680.94
2022-11-12T08:41:37.870Z,102647.50
2022-11-12T08:44:25.925Z,102681.28
2022-11-12T08:47:14.637Z,102678.75
2022-11-12T08:50:04.333Z,102677.84
2022-11-12T08:52:54.763Z,102676.72
2022-11-12T08:55:47.013Z,102666.56
2022-11-12T08:58:37.706Z,102657.78
2022-11-12T09:01:29.277Z,102657.13
2022-11-12T09:04:17.554Z,102676.50
2022-11-12T09:07:09.734Z,102676.06
2022-11-12T09:09:58.390Z,102669.03
2022-11-12T09:12:53.993Z,102665.94
2022-11-12T09:15:42.321Z,102662.31
2022-11-12T09:18:30.583Z,102628.41
2022-11-12T09:21:21.776Z,102676.03
2022-11-12T09:24:10.481Z,102659.06
2022-11-12T09:27:04.974Z,102678.88
2022-11-12T09:29:59.860Z,102665.66
2022-11-12T09:32:48.330Z,102688.28
2022-11-12T09:35:37.842Z,102687.94
2022-11-12T09:38:29.529Z,102658.84
2022-11-12T09:41:28.748Z,102681.78
2022-11-12T09:44:24.466Z,102668.41
2022-11-12T09:47:21.986Z,102689.84
2022-11-12T09:50:22.989Z,102683.59
2022-11-12T09:53:18.297Z,102682.66
2022-11-12T09:56:10.421Z,102683.53
2022-11-12T09:59:03.314Z,102665.56
2022-11-12T10:02:13.267Z,102690.47
2022-11-12T10:05:25.059Z,102692.13
2022-11-12T10:08:37.092Z,102676.13
2022-11-12T10:12:07.919Z,102688.22
2022-11-12T10:15:33.608Z,102672.47
2022-11-12T10:18:38.407Z,102695.34
2022-11-12T10:21:36.410Z,102685.59
2022-11-12T10:24:26.267Z,102658.00
2022-11-12T10:27:18.182Z,102673.53
2022-11-12T10:30:10.142Z,102686.25
2022-11-12T10:32:58.321Z,102687.91
2022-11-12T10:35:54.099Z,102686.03
2022-11-12T10:38:47.883Z,102680.22
2022-11-12T10:41:38.369Z,102676.06
2022-11-12T10:44:29.520Z,102683.25
2022-11-12T10:47:30.391Z,102693.09
2022-11-12T10:50:24.008Z,102678.34
2022-11-12T10:53:16.408Z,102679.53
2022-11-12T10:56:25.745Z,102670.09
2022-11-12T10:59:18.673Z,102674.06
2022-11-12T11:02:21.207Z,102669.34
2022-11-12T11:05:33.187Z,102679.00
2022-11-12T11:08:36.659Z,102666.22
2022-11-12T11:11:30.934Z,102667.28
2022-11-12T11:14:31.816Z,102660.94
2022-11-12T11:17:21.636Z,102656.47
2022-11-12T11:20:21.630Z,102643.03
2022-11-12T11:23:19.207Z,102634.13
2022-11-12T11:26:32.335Z,102643.31
2022-11-12T11:29:36.689Z,102647.88
2022-11-12T11:32:42.059Z,102616.78
2022-11-12T11:35:49.276Z,102631.81
2022-11-12T11:38:54.702Z,102631.84
2022-11-12T11:42:00.515Z,102602.66
2022-11-12T11:45:00.692Z,102630.44
2022-11-12T11:48:01.534Z,102627.72
2022-11-12T11:51:02.535Z,102630.09
2022-11-12T11:54:01.910Z,102615.78
2022-11-12T11:56:58.192Z,102620.50
2022-11-12T12:00:06.062Z,102582.06
2022-11-12T12:03:09.900Z,102613.47
2022-11-12T12:06:25.202Z,102625.28
2022-11-12T12:09:29.513Z,102613.72
2022-11-12T12:12:36.763Z,102587.97
2022-11-12T12:15:38.504Z,102567.31
2022-11-12T12:18:40.026Z,102596.44
2022-11-12T12:21:34.322Z,102593.69
2022-11-12T12:24:28.141Z,102586.28
2022-11-12T12:27:22.038Z,102589.88
2022-11-12T12:30:22.457Z,102590.81
2022-11-12T12:33:23.350Z,102588.34
2022-11-12T12:36:21.016Z,102574.09
2022-11-12T12:39:17.943Z,102564.53
2022-11-12T12:42:15.704Z,102570.22
2022-11-12T12:45:10.965Z,102567.66
2022-11-12T12:48:09.989Z,102568.75
2022-11-12T12:50:58.725Z,102576.34
2022-11-12T12:53:48.032Z,102548.00
2022-11-12T12:56:50.634Z,102559.81
2022-11-12T12:59:39.715Z,102571.72
2022-11-12T13:02:28.975Z,102559.06
2022-11-12T13:05:33.023Z,102507.09
2022-11-12T13:08:26.452Z,102560.50
2022-11-12T13:12:04.751Z,102552.53
2022-11-12T13:15:10.631Z,102541.34
2022-11-12T13:18:00.939Z,102554.63
2022-11-12T13:21:17.907Z,102564.22
2022-11-12T13:24:10.961Z,102565.53
2022-11-12T13:27:01.737Z,102541.91
2022-11-12T13:29:51.112Z,102552.75
2022-11-12T13:32:43.599Z,102558.13
2022-11-12T13:35:35.764Z,102551.13
2022-11-12T13:38:27.286Z,102569.16
2022-11-12T13:41:43.930Z,102557.72
2022-11-12T13:44:34.868Z,102557.16
2022-11-12T13:47:29.319Z,102553.59
2022-11-12T13:50:22.026Z,102557.44
2022-11-12T13:53:22.898Z,102564.38
2022-11-12T13:56:26.506Z,102551.94
2022-11-12T13:59:19.141Z,102559.72
2022-11-12T14:02:25.449Z,102568.28
2022-11-12T14:05:18.247Z,102573.09
2022-11-12T14:08:36.515Z,102568.66
2022-11-12T14:11:47.809Z,102569.13
2022-11-12T14:14:50.977Z,102565.09
2022-11-12T14:17:48.857Z,102549.59
2022-11-12T14:20:38.977Z,102562.47
2022-11-12T14:23:29.589Z,102507.38
2022-11-12T14:26:40.424Z,102561.91
2022-11-12T14:29:34.299Z,102558.34
2022-11-12T14:32:26.841Z,102562.78
2022-11-12T14:35:40.655Z,102542.41
2022-11-12T14:38:31.850Z,102555.19
2022-11-12T14:41:23.742Z,102569.84
2022-11-12T14:44:21.790Z,102566.38
2022-11-12T14:47:12.880Z,102555.44
2022-11-12T14:50:01.469Z,102570.75
2022-11-12T14:52:54.974Z,102553.06
2022-11-12T14:55:46.985Z,102558.97
2022-11-12T14:58:36.178Z,102562.34
2022-11-12T15:02:08.943Z,102531.88
2022-11-12T15:04:41.204Z,102553.09
2022-11-12T15:07:36.322Z,102538.13
2022-11-12T15:10:35.656Z,102557.13
2022-11-12T15:13:27.057Z,102519.94
2022-11-12T15:16:23.946Z,102544.63
2022-11-12T15:19:24.784Z,102548.69
2022-11-12T15:22:22.639Z,102503.47
2022-11-12T15:25:21.860Z,102554.25
2022-11-12T15:28:25.049Z,102547.72
2022-11-12T15:31:21.533Z,102545.66
2022-11-12T15:34:34.500Z,102539.13
2022-11-12T15:37:27.485Z,102550.22
2022-11-12T15:40:21.367Z,102552.13
2022-11-12T15:43:19.355Z,102552.78
2022-11-12T15:46:16.686Z,102520.72
2022-11-12T15:49:14.294Z,102551.34
2022-11-12T15:52:05.015Z,102548.06
2022-11-12T15:54:53.769Z,102558.03
2022-11-12T15:57:45.168Z,102544.78
2022-11-12T16:00:36.161Z,102538.88
2022-11-12T16:03:25.663Z,102530.56
2022-11-12T16:06:14.908Z,102534.53
2022-11-12T16:09:09.105Z,102536.97
2022-11-12T16:11:59.025Z,102533.13
2022-11-12T16:14:47.283Z,102525.78
2022-11-12T16:17:36.409Z,102532.50
2022-11-12T16:20:28.098Z,102522.00
2022-11-12T16:23:18.791Z,102537.81
2022-11-12T16:26:11.843Z,102521.88
2022-11-12T16:29:00.658Z,102545.78
2022-11-12T16:31:52.468Z,102548.16
2022-11-12T16:34:40.942Z,102545.75
2022-11-12T16:37:29.202Z,102537.84
2022-11-12T16:40:21.244Z,102532.31
2022-11-12T16:43:12.164Z,102530.84
2022-11-12T16:46:02.542Z,102542.94
2022-11-12T16:48:52.263Z,102531.38
2022-11-12T16:51:40.813Z,102553.22
2022-11-12T16:54:29.087Z,102540.00
2022-11-12T16:57:17.531Z,102532.16
2022-11-12T17:00:10.659Z,102535.50
2022-11-12T17:02:59.093Z,102529.09
2022-11-12T17:05:54.099Z,102471.38
2022-11-12T17:08:44.918Z,102503.31
2022-11-12T17:11:33.562Z,102506.16
2022-11-12T17:14:28.353Z,102524.53
2022-11-12T17:17:20.767Z,102473.44
2022-11-12T17:20:10.770Z,102505.63
2022-11-12T17:22:58.971Z,102506.41
2022-11-12T17:25:47.325Z,102520.22
2022-11-12T17:28:39.743Z,102518.78
2022-11-12T17:31:28.106Z,102515.06
2022-11-12T17:34:25.356Z,102518.97
2022-11-12T17:37:15.370Z,102509.13
2022-11-12T17:40:03.912Z,102513.25
2022-11-12T17:42:53.871Z,102496.88
2022-11-12T17:45:52.013Z,102504.06
2022-11-12T17:48:41.396Z,102508.81
2022-11-12T17:51:33.597Z,102514.09
2022-11-12T17:54:25.527Z,102511.50
2022-11-12T17:57:13.586Z,102487.56
2022-11-12T18:00:02.003Z,102482.91
2022-11-12T18:02:50.803Z,102497.94
2022-11-12T18:05:41.069Z,102470.56
2022-11-12T18:08:32.020Z,102507.09
2022-11-12T18:11:20.444Z,102500.34
2022-11-12T18:14:09.260Z,102499.75
2022-11-12T18:16:58.416Z,102517.81
2022-11-12T18:19:47.845Z,102514.22
2022-11-12T18:22:40.684Z,102502.97
2022-11-12T18:25:34.600Z,102490.09
2022-11-12T18:28:23.093Z,102501.81
2022-11-12T18:31:15.764Z,102490.59
2022-11-12T18:34:06.881Z,102447.00
2022-11-12T18:36:55.518Z,102502.94
2022-11-12T18:39:43.756Z,102498.16
2022-11-12T18:42:35.522Z,102501.44
2022-11-12T18:45:23.741Z,102488.59
2022-11-12T18:48:13.996Z,102485.25
2022-11-12T18:51:03.627Z,102484.88
2022-11-12T18:53:51.930Z,102495.78
2022-11-12T18:56:42.639Z,102470.41
2022-11-12T18:59:33.707Z,102477.34
2022-11-12T19:02:23.050Z,102483.09
2022-11-12T19:05:11.912Z,102480.06
2022-11-12T19:08:00.220Z,102470.59
2022-11-12T19:10:52.100Z,102445.50
2022-11-12T19:13:45.279Z,102477.84
2022-11-12T19:16:38.289Z,102474.03
2022-11-12T19:19:27.588Z,102475.28
2022-11-12T19:22:16.217Z,102468.84
2022-11-12T19:25:05.104Z,102435.69
2022-11-12T19:27:53.404Z,102463.28
2022-11-12T19:30:41.717Z,102464.19
2022-11-12T19:33:33.934Z,102425.75
2022-11-12T19:36:24.844Z,102462.41
2022-11-12T19:39:13.179Z,102453.25
2022-11-12T19:42:02.723Z,102450.53
2022-11-12T19:44:52.532Z,102449.25
2022-11-12T19:47:41.133Z,102453.53
2022-11-12T19:50:34.137Z,102443.31
2022-11-12T19:53:23.598Z,102439.50
2022-11-12T19:56:12.042Z,102452.25
2022-11-12T19:59:00.736Z,102425.22
2022-11-12T20:01:49.166Z,102441.13
2022-11-12T20:04:37.327Z,102432.94
2022-11-12T20:07:28.343Z,102443.19
2022-11-12T20:10:17.165Z,102439.69
2022-11-12T20:13:09.306Z,102439.78
2022-11-12T20:15:59.655Z,102415.78
2022-11-12T20:18:55.537Z,102438.03
2022-11-12T20:21:43.746Z,102432.47
2022-11-12T20:24:34.750Z,102388.75
2022-11-12T20:27:23.423Z,102417.72
2022-11-12T20:30:13.542Z,102427.28
2022-11-12T20:33:01.864Z,102425.41
2022-11-12T20:35:50.319Z,102422.03
2022-11-12T20:38:40.293Z,102424.47
2022-11-12T20:41:32.217Z,102435.06
2022-11-12T20:44:20.798Z,102419.75
2022-11-12T20:47:13.318Z,102421.34
2022-11-12T20:50:05.385Z,102415.38
2022-11-12T20:52:53.646Z,102426.28
2022-11-12T20:55:43.243Z,102418.50
2022-11-12T20:58:37.985Z,102422.63
2022-11-12T21:01:28.608Z,102415.78
2022-11-12T21:04:17.342Z,102428.44
2022-11-12T21:07:07.085Z,102384.88
2022-11-12T21:09:55.374Z,102395.59
2022-11-12T21:12:43.940Z,102403.31
2022-11-12T21:15:34.759Z,102411.38
2022-11-12T21:18:27.869Z,102405.25
2022-11-12T21:21:21.921Z,102395.69
2022-11-12T21:24:12.897Z,102407.19
2022-11-12T21:27:01.315Z,102400.16
2022-11-12T21:29:49.879Z,102379.97
2022-11-12T21:32:41.521Z,102400.00
2022-11-12T21:35:29.940Z,102390.59
2022-11-12T21:38:19.548Z,102377.53
2022-11-12T21:41:10.477Z,102390.41
2022-11-12T21:43:58.983Z,102367.41
2022-11-12T21:46:49.477Z,102378.44
2022-11-12T21:49:44.037Z,102386.22
2022-11-12T21:52:32.250Z,102379.38
2022-11-12T21:55:20.491Z,102385.16
2022-11-12T21:58:08.734Z,102371.50
2022-11-12T22:00:57.910Z,102349.47
2022-11-12T22:03:47.240Z,102358.22
2022-11-12T22:06:41.101Z,102362.19
2022-11-12T22:09:30.915Z,102366.03
2022-11-12T22:12:19.747Z,102370.63
2022-11-12T22:15:12.410Z,102368.38
2022-11-12T22:18:01.056Z,102358.44
2022-11-12T22:20:58.892Z,102338.91
2022-11-12T22:23:51.481Z,102363.28
2022-11-12T22:26:40.145Z,102363.28
2022-11-12T22:29:28.302Z,102357.72
2022-11-12T22:32:16.859Z,102355.28
2022-11-12T22:35:05.120Z,102360.16
2022-11-12T22:37:53.722Z,102350.22
2022-11-12T22:40:44.505Z,102356.84
2022-11-12T22:43:33.222Z,102350.22
2022-11-12T22:46:25.497Z,102346.13
2022-11-12T22:49:14.849Z,102321.25
2022-11-12T22:52:02.939Z,102354.38
2022-11-12T22:54:51.413Z,102342.75
2022-11-12T22:57:42.705Z,102339.34
2022-11-12T23:00:33.341Z,102345.91
2022-11-12T23:03:21.962Z,102336.31
2022-11-12T23:06:11.012Z,102346.75
2022-11-12T23:09:00.633Z,102316.84
2022-11-12T23:11:50.009Z,102332.25
2022-11-12T23:14:41.063Z,102340.91
2022-11-12T23:17:30.598Z,102335.94
2022-11-12T23:20:20.224Z,102342.38
2022-11-12T23:23:09.850Z,102327.88
2022-11-12T23:26:05.878Z,102324.06
2022-11-12T23:28:54.731Z,102335.00
2022-11-12T23:31:45.882Z,102334.59
2022-11-12T23:34:34.377Z,102327.81
2022-11-12T23:37:22.640Z,102330.13
2022-11-12T23:40:12.954Z,102318.06
2022-11-12T23:43:01.179Z,102311.44
2022-11-12T23:45:51.630Z,102319.25
2022-11-12T23:48:43.648Z,102314.84
2022-11-12T23:51:32.159Z,102324.38
2022-11-12T23:54:20.630Z,102325.47
2022-11-12T23:57:08.767Z,102320.41
2022-11-12T23:59:56.884Z,102262.72
